Time;durP1;ratioP1;P1;durP2;ratioP2;P2;SDS_P1;SDS_P2;PMS_P1;PMS_P2;Temp;Humidity;BMP_temperature;BMP_pressure;BME280_temperature;BME280_humidity;BME280_pressure;Samples;Min_cycle;Max_cycle;Signal;HPM_P1;HPM_P2
2021/11/24 00:00:28;;;;;;;41.20;15.77;;;6.80;99.90;;;;;;5030681;28;20068;-89
2021/11/24 00:02:53;;;;;;;75.00;16.23;;;6.80;99.90;;;;;;5034846;28;20142;-89
2021/11/24 00:05:19;;;;;;;29.15;19.00;;;6.70;99.90;;;;;;5035608;28;20473;-90
2021/11/24 00:07:49;;;;;;;37.97;24.25;;;6.70;99.90;;;;;;5035145;28;20029;-89
2021/11/24 00:10:17;;;;;;;39.15;23.90;;;6.70;99.90;;;;;;5029646;28;20025;-89
2021/11/24 00:12:42;;;;;;;38.08;25.10;;;6.60;99.90;;;;;;5035639;28;20144;-90
2021/11/24 00:15:09;;;;;;;35.13;23.77;;;6.60;99.90;;;;;;5030881;28;20022;-90
2021/11/24 00:17:35;;;;;;;30.58;22.30;;;6.60;99.90;;;;;;5035296;28;20493;-89
2021/11/24 00:20:01;;;;;;;30.10;22.73;;;6.50;99.90;;;;;;5025313;28;20112;-89
2021/11/24 00:22:27;;;;;;;37.17;24.25;;;6.50;99.90;;;;;;5036335;28;20048;-90
2021/11/24 00:24:53;;;;;;;30.48;21.08;;;6.50;99.90;;;;;;5032480;28;20746;-90
2021/11/24 00:27:19;;;;;;;276.33;34.58;;;6.50;99.90;;;;;;5039590;28;20491;-88
2021/11/24 00:29:44;;;;;;;39.25;23.83;;;6.40;99.90;;;;;;5037619;28;20119;-87
2021/11/24 00:32:10;;;;;;;35.53;26.35;;;6.30;99.90;;;;;;5030651;28;20040;-89
2021/11/24 00:34:35;;;;;;;32.78;25.00;;;6.30;99.90;;;;;;5041140;28;20021;-89
2021/11/24 00:37:01;;;;;;;46.60;29.15;;;6.30;99.90;;;;;;5042269;28;20475;-89
2021/11/24 00:39:27;;;;;;;69.13;30.13;;;6.30;99.90;;;;;;5036731;28;20024;-89
2021/11/24 00:41:53;;;;;;;97.78;32.42;;;6.30;99.90;;;;;;5036428;28;20033;-89
2021/11/24 00:44:18;;;;;;;158.73;33.63;;;6.30;99.90;;;;;;5036250;28;20129;-88
2021/11/24 00:46:44;;;;;;;274.83;39.05;;;6.20;99.90;;;;;;5035509;28;20025;-88
2021/11/24 00:49:09;;;;;;;144.95;34.03;;;6.20;99.90;;;;;;5035382;28;20031;-88
2021/11/24 00:51:36;;;;;;;104.32;35.33;;;6.20;99.90;;;;;;5036189;28;20038;-88
2021/11/24 00:54:02;;;;;;;151.15;36.78;;;6.20;99.90;;;;;;5038889;28;20107;-87
2021/11/24 00:56:27;;;;;;;89.88;32.72;;;6.20;99.90;;;;;;5036349;28;20738;-88
2021/11/24 00:58:53;;;;;;;58.08;34.58;;;6.20;99.90;;;;;;5038539;28;20542;-88
2021/11/24 01:01:18;;;;;;;47.50;31.70;;;6.30;99.90;;;;;;5037639;28;20060;-89
2021/11/24 01:03:44;;;;;;;62.20;33.53;;;6.30;99.90;;;;;;5034106;28;20029;-88
2021/11/24 01:06:10;;;;;;;105.28;37.42;;;6.30;99.90;;;;;;5055219;28;20032;-88
2021/11/24 01:08:35;;;;;;;100.60;38.78;;;6.30;99.90;;;;;;5037507;28;20525;-89
2021/11/24 01:11:01;;;;;;;75.68;41.25;;;6.30;99.90;;;;;;5035197;28;20024;-89
2021/11/24 01:13:27;;;;;;;90.93;40.67;;;6.30;99.90;;;;;;5035864;28;20029;-89
2021/11/24 01:15:53;;;;;;;66.35;38.92;;;6.40;99.90;;;;;;5023331;28;20025;-89
2021/11/24 01:18:18;;;;;;;80.55;40.45;;;6.50;99.90;;;;;;5035315;28;20466;-89
2021/11/24 01:20:47;;;;;;;73.55;39.67;;;6.50;99.90;;;;;;5051212;28;20083;-89
2021/11/24 01:23:14;;;;;;;58.83;36.90;;;6.50;99.90;;;;;;5035363;28;20029;-89
2021/11/24 01:25:40;;;;;;;57.30;37.53;;;6.50;99.90;;;;;;5052920;28;20033;-89
2021/11/24 01:28:05;;;;;;;57.22;37.63;;;6.50;99.90;;;;;;5048688;28;20059;-88
2021/11/24 01:30:31;;;;;;;56.70;36.30;;;6.60;99.90;;;;;;5028327;28;20116;-89
2021/11/24 01:32:57;;;;;;;55.83;36.75;;;6.60;99.90;;;;;;5043547;28;20041;-89
2021/11/24 01:35:22;;;;;;;50.72;36.22;;;6.60;99.90;;;;;;5048637;28;20033;-89
2021/11/24 01:37:48;;;;;;;57.17;35.47;;;6.60;99.90;;;;;;5036587;28;20040;-89
2021/11/24 01:40:14;;;;;;;58.30;36.42;;;6.60;99.90;;;;;;5036290;28;20063;-90
2021/11/24 01:42:41;;;;;;;63.75;37.15;;;6.60;99.90;;;;;;5036987;28;20021;-88
2021/11/24 01:45:07;;;;;;;77.63;39.60;;;6.60;99.90;;;;;;5037399;28;20040;-89
2021/11/24 01:47:33;;;;;;;50.53;34.10;;;6.60;99.90;;;;;;5034770;28;20037;-89
2021/11/24 01:49:58;;;;;;;72.75;35.15;;;6.60;99.90;;;;;;5037639;28;20021;-89
2021/11/24 01:52:24;;;;;;;77.70;38.85;;;6.60;99.90;;;;;;5022520;28;20408;-88
2021/11/24 01:54:49;;;;;;;99.85;41.90;;;6.60;99.90;;;;;;5040348;28;20124;-89
2021/11/24 01:57:16;;;;;;;90.75;41.20;;;6.60;99.90;;;;;;5036329;28;20025;-88
2021/11/24 01:59:43;;;;;;;77.57;40.92;;;6.60;99.90;;;;;;5037710;28;20453;-89
2021/11/24 02:02:09;;;;;;;74.93;40.53;;;6.60;99.90;;;;;;5032981;28;20065;-89
2021/11/24 02:04:34;;;;;;;99.15;43.03;;;6.60;99.90;;;;;;5035168;28;20025;-89
2021/11/24 02:07:00;;;;;;;78.20;39.38;;;6.60;99.90;;;;;;5053049;28;20040;-89
2021/11/24 02:09:25;;;;;;;124.45;39.05;;;6.60;99.90;;;;;;5039121;28;20048;-89
2021/11/24 02:11:52;;;;;;;94.15;36.45;;;6.60;99.90;;;;;;5034762;28;20040;-89
2021/11/24 02:14:17;;;;;;;85.93;36.90;;;6.60;99.90;;;;;;5037174;28;20016;-90
2021/11/24 02:16:46;;;;;;;73.18;37.95;;;6.60;99.90;;;;;;5035467;28;20545;-89
2021/11/24 02:19:13;;;;;;;99.05;38.80;;;6.50;99.90;;;;;;5020161;28;20037;-90
2021/11/24 02:21:45;;;;;;;224.02;45.08;;;6.50;99.90;;;;;;5029212;28;20481;-90
2021/11/24 02:24:10;;;;;;;105.63;35.17;;;6.40;99.90;;;;;;5033854;28;20028;-90
2021/11/24 02:26:36;;;;;;;152.50;38.75;;;6.40;99.90;;;;;;5030609;28;20033;-89
2021/11/24 02:29:02;;;;;;;148.85;41.78;;;6.30;99.90;;;;;;5038623;28;20032;-89
2021/11/24 02:31:28;;;;;;;93.22;37.97;;;6.30;99.90;;;;;;5031571;28;20067;-89
2021/11/24 02:33:56;;;;;;;112.10;38.42;;;6.30;99.90;;;;;;5036729;28;20393;-90
2021/11/24 02:36:23;;;;;;;273.75;46.03;;;6.30;99.90;;;;;;5034361;28;20036;-89
2021/11/24 02:38:49;;;;;;;202.32;39.42;;;6.30;99.90;;;;;;5032534;28;20515;-90
2021/11/24 02:41:14;;;;;;;238.75;39.25;;;6.30;99.90;;;;;;5036341;28;20045;-90
2021/11/24 02:43:40;;;;;;;209.73;40.78;;;6.20;99.90;;;;;;5036895;28;20083;-89
2021/11/24 02:46:06;;;;;;;248.52;39.90;;;6.30;99.90;;;;;;5031682;28;20133;-90
2021/11/24 02:48:31;;;;;;;232.05;39.17;;;6.30;99.90;;;;;;5036819;28;20019;-90
2021/11/24 02:50:57;;;;;;;227.45;38.63;;;6.30;99.90;;;;;;5031006;28;20112;-90
2021/11/24 02:53:26;;;;;;;206.52;34.67;;;6.30;99.90;;;;;;5036890;28;20094;-90
2021/11/24 02:55:53;;;;;;;169.88;34.42;;;6.30;99.90;;;;;;5052767;28;20028;-89
2021/11/24 02:58:19;;;;;;;229.20;34.95;;;6.20;99.90;;;;;;5035919;28;20382;-89
2021/11/24 03:00:45;;;;;;;185.88;33.13;;;6.30;99.90;;;;;;5049293;28;20036;-90
2021/11/24 03:03:10;;;;;;;216.20;32.40;;;6.20;99.90;;;;;;5051006;28;20033;-90
2021/11/24 03:05:36;;;;;;;171.82;31.33;;;6.30;99.90;;;;;;5051207;28;20025;-90
2021/11/24 03:08:02;;;;;;;94.65;28.80;;;6.20;99.90;;;;;;5029571;28;20022;-90
2021/11/24 03:10:28;;;;;;;149.07;31.65;;;6.20;99.90;;;;;;5049013;28;20025;-89
2021/11/24 03:12:55;;;;;;;147.68;31.05;;;6.20;99.90;;;;;;5030730;28;20409;-89
2021/11/24 03:15:20;;;;;;;333.98;40.78;;;6.20;99.90;;;;;;5033427;28;20025;-89
2021/11/24 03:17:46;;;;;;;255.77;36.50;;;6.20;99.90;;;;;;5029591;28;20038;-90
2021/11/24 03:20:13;;;;;;;257.20;42.00;;;6.30;99.90;;;;;;5032602;28;20029;-89
2021/11/24 03:22:38;;;;;;;210.98;37.92;;;6.20;99.90;;;;;;5026435;28;20029;-89
2021/11/24 03:25:06;;;;;;;193.57;34.83;;;6.20;99.90;;;;;;5030045;28;20030;-90
2021/11/24 03:27:38;;;;;;;200.48;34.30;;;6.20;99.90;;;;;;5028733;28;20029;-90
2021/11/24 03:30:08;;;;;;;386.35;42.85;;;6.20;99.90;;;;;;5034472;28;20060;-90
2021/11/24 03:32:34;;;;;;;84.40;27.17;;;6.20;99.90;;;;;;5027907;28;20037;-90
2021/11/24 03:35:01;;;;;;;70.13;27.25;;;6.20;99.90;;;;;;5035398;28;20534;-90
2021/11/24 03:37:26;;;;;;;138.68;32.60;;;6.20;99.90;;;;;;5035172;28;20033;-90
2021/11/24 03:39:52;;;;;;;133.23;31.88;;;6.20;99.90;;;;;;5040784;28;20037;-89
2021/11/24 03:42:18;;;;;;;126.60;32.78;;;6.20;99.90;;;;;;5043226;28;20021;-90
2021/11/24 03:44:44;;;;;;;158.43;33.58;;;6.20;99.90;;;;;;5030182;28;20033;-91
2021/11/24 03:47:10;;;;;;;129.20;32.80;;;6.20;99.90;;;;;;5033109;28;20078;-90
2021/11/24 03:49:36;;;;;;;120.60;32.53;;;6.20;99.90;;;;;;5031923;28;20045;-91
2021/11/24 03:52:03;;;;;;;81.85;29.55;;;6.20;99.90;;;;;;5032924;28;20036;-90
2021/11/24 03:54:28;;;;;;;94.25;30.90;;;6.30;99.90;;;;;;5020516;28;20029;-90
2021/11/24 03:56:54;;;;;;;63.95;28.38;;;6.30;99.90;;;;;;5033749;28;20036;-91
2021/11/24 03:59:19;;;;;;;60.35;28.23;;;6.30;99.90;;;;;;5019494;28;20026;-91
2021/11/24 04:01:45;;;;;;;68.72;28.95;;;6.30;99.90;;;;;;5041554;28;20559;-91
2021/11/24 04:04:10;;;;;;;59.17;28.08;;;6.30;99.90;;;;;;5048682;28;20115;-91
2021/11/24 04:06:36;;;;;;;63.17;27.80;;;6.30;99.90;;;;;;5025269;28;20029;-90
2021/11/24 04:09:02;;;;;;;66.03;29.23;;;6.30;99.90;;;;;;5034658;28;20067;-91
2021/11/24 04:11:28;;;;;;;59.75;27.02;;;6.30;99.90;;;;;;5035560;28;20032;-91
2021/11/24 04:13:53;;;;;;;99.85;29.85;;;6.20;99.90;;;;;;5039299;28;20022;-90
2021/11/24 04:16:19;;;;;;;79.63;30.48;;;6.30;99.90;;;;;;5031143;28;20091;-90
2021/11/24 04:18:47;;;;;;;49.42;26.38;;;6.20;99.90;;;;;;5032476;28;20033;-90
2021/11/24 04:21:13;;;;;;;46.30;25.42;;;6.20;99.90;;;;;;5026646;28;20033;-91
2021/11/24 04:23:38;;;;;;;51.55;26.35;;;6.20;99.90;;;;;;5035062;28;20037;-91
2021/11/24 04:26:04;;;;;;;60.88;26.70;;;6.20;99.90;;;;;;5033391;28;20036;-91
2021/11/24 04:28:29;;;;;;;144.63;28.17;;;6.20;99.90;;;;;;5035934;28;20013;-91
2021/11/24 04:30:55;;;;;;;62.55;26.75;;;6.10;99.90;;;;;;5032963;28;20036;-90
2021/11/24 04:33:20;;;;;;;60.47;26.42;;;6.10;99.90;;;;;;5033216;28;20029;-90
2021/11/24 04:35:46;;;;;;;55.17;26.23;;;6.10;99.90;;;;;;5023608;28;20033;-91
2021/11/24 04:38:12;;;;;;;60.05;25.98;;;6.10;99.90;;;;;;5024010;28;20104;-91
2021/11/24 04:40:37;;;;;;;76.03;27.23;;;6.00;99.90;;;;;;5025194;28;20417;-90
2021/11/24 04:43:05;;;;;;;101.88;28.25;;;6.00;99.90;;;;;;5035905;28;20495;-90
2021/11/24 04:45:31;;;;;;;80.63;26.77;;;5.90;99.90;;;;;;5031079;28;20037;-90
2021/11/24 04:47:57;;;;;;;128.90;28.45;;;5.90;99.90;;;;;;5022328;28;20104;-90
2021/11/24 04:50:22;;;;;;;122.60;32.58;;;5.80;99.90;;;;;;5025398;28;20025;-90
2021/11/24 04:52:48;;;;;;;115.05;29.98;;;5.80;99.90;;;;;;5029353;28;20075;-90
2021/11/24 04:55:15;;;;;;;66.05;27.15;;;5.80;99.90;;;;;;5026206;28;20036;-90
2021/11/24 04:57:40;;;;;;;84.60;28.98;;;5.70;99.90;;;;;;5034313;28;20029;-90
2021/11/24 05:00:10;;;;;;;77.97;28.38;;;5.70;99.90;;;;;;5032190;28;20032;-90
2021/11/24 05:02:36;;;;;;;122.40;31.55;;;5.60;99.90;;;;;;5028051;28;20037;-90
2021/11/24 05:05:02;;;;;;;116.22;29.23;;;5.60;99.90;;;;;;5031183;28;20571;-90
2021/11/24 05:07:29;;;;;;;59.72;27.40;;;5.60;99.90;;;;;;5025695;28;20537;-91
2021/11/24 05:09:54;;;;;;;118.72;30.33;;;5.50;99.90;;;;;;5034942;28;20477;-90
2021/11/24 05:12:20;;;;;;;55.03;27.58;;;5.50;99.90;;;;;;5037736;28;20030;-90
2021/11/24 05:14:48;;;;;;;83.22;31.25;;;5.50;99.90;;;;;;5038800;28;20118;-90
2021/11/24 05:17:16;;;;;;;186.10;34.63;;;5.50;99.90;;;;;;5034666;28;20330;-90
2021/11/24 05:19:46;;;;;;;131.45;32.70;;;5.50;99.90;;;;;;5043072;28;21234;-89
2021/11/24 05:22:12;;;;;;;79.45;31.60;;;5.50;99.90;;;;;;5034674;28;20075;-90
2021/11/24 05:24:38;;;;;;;138.93;33.30;;;5.60;99.90;;;;;;5038132;28;20029;-90
2021/11/24 05:27:04;;;;;;;187.75;32.28;;;5.60;99.90;;;;;;5032938;28;20035;-90
2021/11/24 05:29:29;;;;;;;225.13;37.97;;;5.60;99.90;;;;;;5038997;28;20054;-90
2021/11/24 05:31:55;;;;;;;115.55;33.33;;;5.70;99.90;;;;;;5036818;28;20144;-90
2021/11/24 05:34:20;;;;;;;83.80;31.45;;;5.70;99.90;;;;;;5038534;28;20075;-91
2021/11/24 05:36:46;;;;;;;135.50;34.83;;;5.70;99.90;;;;;;5053555;28;20025;-91
2021/11/24 05:39:11;;;;;;;75.63;33.67;;;5.70;99.90;;;;;;5035437;28;20078;-91
2021/11/24 05:41:40;;;;;;;167.75;36.38;;;5.70;99.90;;;;;;5036327;28;20049;-92
2021/11/24 05:44:47;;;;;;;64.63;30.15;;;5.70;99.90;;;;;;5016432;28;20030;-90
2021/11/24 05:47:08;;;;;;;66.97;29.75;;;5.70;99.90;;;;;;5031441;28;20042;-91
2021/11/24 05:49:36;;;;;;;69.95;29.38;;;5.70;99.90;;;;;;5035075;28;20409;-90
2021/11/24 05:52:03;;;;;;;72.95;32.70;;;5.70;99.90;;;;;;5033512;28;20494;-90
2021/11/24 05:54:28;;;;;;;74.00;30.30;;;5.70;99.90;;;;;;5034062;28;20366;-90
2021/11/24 05:56:54;;;;;;;148.52;34.38;;;5.70;99.90;;;;;;5032564;28;20037;-90
2021/11/24 05:59:20;;;;;;;108.15;31.00;;;5.70;99.90;;;;;;5030658;28;20025;-90
2021/11/24 06:01:46;;;;;;;73.88;29.80;;;5.70;99.90;;;;;;5036485;28;20087;-92
2021/11/24 06:04:12;;;;;;;58.92;28.92;;;5.70;99.90;;;;;;5049605;28;20022;-91
2021/11/24 06:06:42;;;;;;;112.70;32.97;;;5.70;99.90;;;;;;5033024;28;20026;-92
2021/11/24 06:09:07;;;;;;;163.27;34.22;;;5.70;99.90;;;;;;5030455;28;20021;-89
2021/11/24 06:11:37;;;;;;;74.68;28.88;;;5.70;99.90;;;;;;5036283;28;20124;-91
2021/11/24 06:14:08;;;;;;;104.55;31.88;;;5.70;99.90;;;;;;5035622;28;20501;-92
2021/11/24 06:16:38;;;;;;;116.35;31.17;;;5.80;99.90;;;;;;5031952;28;20040;-94
2021/11/24 06:19:03;;;;;;;95.93;32.53;;;5.80;99.90;;;;;;5034400;28;20101;-93
2021/11/24 06:21:29;;;;;;;87.65;33.35;;;5.80;99.90;;;;;;5031707;28;20021;-92
2021/11/24 06:23:54;;;;;;;126.47;33.47;;;5.80;99.90;;;;;;5036187;28;20026;-92
2021/11/24 06:26:21;;;;;;;94.35;32.00;;;5.90;99.90;;;;;;5030681;28;20029;-91
2021/11/24 06:28:47;;;;;;;101.60;33.60;;;5.90;99.90;;;;;;5025346;28;20386;-92
2021/11/24 06:31:13;;;;;;;65.22;32.80;;;6.00;99.90;;;;;;5033445;28;20493;-90
2021/11/24 06:33:39;;;;;;;69.43;31.60;;;6.00;99.90;;;;;;5028778;28;20115;-91
2021/11/24 06:36:05;;;;;;;59.25;30.00;;;6.00;99.90;;;;;;5030004;28;20513;-91
2021/11/24 06:38:30;;;;;;;68.18;31.15;;;6.10;99.90;;;;;;5034399;28;20029;-92
2021/11/24 06:40:56;;;;;;;88.75;30.80;;;6.10;99.90;;;;;;5036561;28;20049;-91
2021/11/24 06:43:21;;;;;;;129.50;34.78;;;6.10;99.90;;;;;;5041289;28;20033;-91
2021/11/24 06:45:47;;;;;;;93.75;31.92;;;6.00;99.90;;;;;;5034589;28;20029;-92
2021/11/24 06:48:15;;;;;;;82.75;29.98;;;6.10;99.90;;;;;;5034737;28;20037;-91
2021/11/24 06:50:41;;;;;;;86.53;32.35;;;6.00;99.90;;;;;;5018483;28;20033;-90
2021/11/24 06:53:07;;;;;;;95.72;34.90;;;6.10;99.90;;;;;;5027508;28;20029;-91
2021/11/24 06:55:33;;;;;;;77.95;33.88;;;6.10;99.90;;;;;;5035845;28;20071;-92
2021/11/24 06:57:58;;;;;;;68.38;31.05;;;6.10;99.90;;;;;;5030385;28;20029;-93
2021/11/24 07:00:26;;;;;;;61.80;30.30;;;6.20;99.90;;;;;;5017402;28;20026;-93
2021/11/24 07:02:55;;;;;;;73.80;31.52;;;6.20;99.90;;;;;;5030493;28;20493;-91
2021/11/24 07:05:20;;;;;;;76.00;33.33;;;6.20;99.90;;;;;;5035119;28;20367;-93
2021/11/24 07:07:46;;;;;;;73.88;33.63;;;6.20;99.90;;;;;;5029137;28;20036;-91
2021/11/24 07:10:12;;;;;;;113.45;36.20;;;6.20;99.90;;;;;;5026447;28;20491;-92
2021/11/24 07:12:37;;;;;;;105.82;34.65;;;6.30;99.90;;;;;;5032866;28;20029;-92
2021/11/24 07:15:05;;;;;;;74.93;32.90;;;6.30;99.90;;;;;;5026210;28;20544;-91
2021/11/24 07:17:30;;;;;;;71.80;31.17;;;6.20;99.90;;;;;;5022393;28;20026;-90
2021/11/24 07:19:56;;;;;;;68.68;32.30;;;6.30;99.90;;;;;;5034454;28;20021;-91
2021/11/24 07:22:22;;;;;;;68.15;32.00;;;6.30;99.90;;;;;;5035461;28;20030;-92
2021/11/24 07:24:48;;;;;;;67.68;31.02;;;6.30;99.90;;;;;;5022855;28;20079;-90
2021/11/24 07:27:13;;;;;;;107.50;34.10;;;6.40;99.90;;;;;;5026485;28;20366;-93
2021/11/24 07:29:39;;;;;;;100.82;35.28;;;6.40;99.90;;;;;;5032826;28;20021;-92
2021/11/24 07:32:08;;;;;;;138.52;37.20;;;6.40;99.90;;;;;;5023654;28;20443;-91
2021/11/24 07:34:34;;;;;;;112.10;37.83;;;6.40;99.90;;;;;;5031480;28;20025;-91
2021/11/24 07:37:02;;;;;;;87.22;34.75;;;6.50;99.90;;;;;;5033179;28;20029;-92
2021/11/24 07:39:28;;;;;;;140.43;35.70;;;6.50;99.90;;;;;;5031509;28;20033;-92
2021/11/24 07:41:53;;;;;;;94.05;34.20;;;6.50;99.90;;;;;;5036969;28;20033;-91
2021/11/24 07:44:19;;;;;;;135.07;33.88;;;6.50;99.90;;;;;;5027212;28;20024;-92
2021/11/24 07:46:44;;;;;;;124.13;34.75;;;6.50;99.90;;;;;;5035915;28;20020;-89
2021/11/24 07:49:10;;;;;;;207.65;39.35;;;6.50;99.90;;;;;;5044134;28;20029;-90
2021/11/24 07:51:35;;;;;;;178.18;43.38;;;6.50;99.90;;;;;;5038096;28;20072;-90
2021/11/24 07:54:01;;;;;;;155.05;40.75;;;6.50;99.90;;;;;;5028327;28;20120;-91
2021/11/24 07:56:27;;;;;;;188.02;45.95;;;6.60;99.90;;;;;;5033441;28;20481;-89
2021/11/24 07:58:54;;;;;;;245.27;49.35;;;6.50;99.90;;;;;;5036146;28;20541;-91
2021/11/24 08:01:20;;;;;;;109.18;42.72;;;6.60;99.90;;;;;;5036489;28;20067;-90
2021/11/24 08:03:45;;;;;;;145.23;45.10;;;6.60;99.90;;;;;;5034151;28;20056;-90
2021/11/24 08:06:11;;;;;;;102.32;40.85;;;6.70;99.90;;;;;;5041827;28;20096;-91
2021/11/24 08:08:37;;;;;;;207.98;45.55;;;6.70;99.90;;;;;;5035837;28;20494;-89
2021/11/24 08:11:03;;;;;;;123.55;41.45;;;6.70;99.90;;;;;;5033203;28;20461;-92
2021/11/24 08:13:29;;;;;;;107.93;41.13;;;6.70;99.90;;;;;;5036815;28;20041;-91
2021/11/24 08:15:54;;;;;;;142.85;41.97;;;6.80;99.90;;;;;;5034228;28;20024;-91
2021/11/24 08:18:20;;;;;;;145.23;41.72;;;6.80;99.90;;;;;;5035681;28;20433;-91
2021/11/24 08:20:45;;;;;;;306.35;49.95;;;6.80;99.90;;;;;;5035747;28;20047;-92
2021/11/24 08:23:11;;;;;;;110.10;40.67;;;6.90;99.90;;;;;;5029783;28;20119;-92
2021/11/24 08:25:37;;;;;;;208.02;44.42;;;6.90;99.90;;;;;;5035641;28;20473;-91
2021/11/24 08:28:03;;;;;;;117.05;41.13;;;6.90;99.90;;;;;;5033916;28;20452;-91
2021/11/24 08:30:29;;;;;;;145.93;43.05;;;7.00;99.90;;;;;;5028444;28;20029;-93
2021/11/24 08:32:54;;;;;;;165.32;44.17;;;7.00;99.90;;;;;;5032539;28;20543;-91
2021/11/24 08:35:21;;;;;;;143.52;41.47;;;7.00;99.90;;;;;;5031855;28;20025;-91
2021/11/24 08:37:47;;;;;;;152.43;43.05;;;7.00;99.90;;;;;;5031635;28;20074;-91
2021/11/24 08:40:16;;;;;;;91.05;40.20;;;7.10;99.90;;;;;;5030922;28;20080;-90
2021/11/24 08:42:41;;;;;;;86.10;37.78;;;7.10;99.90;;;;;;5028417;28;20071;-91
2021/11/24 08:45:09;;;;;;;93.53;38.60;;;7.10;99.90;;;;;;5033649;28;20026;-91
2021/11/24 08:47:37;;;;;;;104.72;39.17;;;7.10;99.90;;;;;;5037272;28;20025;-90
2021/11/24 08:50:09;;;;;;;82.80;36.20;;;7.10;99.90;;;;;;5031840;28;20112;-90
2021/11/24 08:52:35;;;;;;;95.18;38.20;;;7.20;99.90;;;;;;5047722;28;20034;-91
2021/11/24 08:55:02;;;;;;;84.55;38.03;;;7.20;99.90;;;;;;5037453;28;20029;-89
2021/11/24 08:57:27;;;;;;;122.60;40.50;;;7.30;99.90;;;;;;5038169;28;20025;-92
2021/11/24 08:59:53;;;;;;;89.28;40.13;;;7.30;99.90;;;;;;5040686;28;20036;-91
2021/11/24 09:02:20;;;;;;;97.35;38.75;;;7.40;99.90;;;;;;5034956;28;20116;-92
2021/11/24 09:04:45;;;;;;;82.70;37.00;;;7.40;99.90;;;;;;5035451;28;20040;-91
2021/11/24 09:07:11;;;;;;;74.57;36.70;;;7.40;99.90;;;;;;5036048;28;20053;-92
2021/11/24 09:09:39;;;;;;;82.90;36.15;;;7.50;99.90;;;;;;5034901;28;20474;-92
2021/11/24 09:12:06;;;;;;;73.82;35.67;;;7.50;99.90;;;;;;5032199;28;20026;-92
2021/11/24 09:14:31;;;;;;;70.35;34.20;;;7.50;99.90;;;;;;5035831;28;20021;-92
2021/11/24 09:16:57;;;;;;;68.47;31.77;;;7.60;99.90;;;;;;5026513;28;20028;-90
2021/11/24 09:19:23;;;;;;;69.35;31.27;;;7.60;99.90;;;;;;5037200;28;20374;-91
2021/11/24 09:21:49;;;;;;;66.88;30.10;;;7.60;99.90;;;;;;5034417;28;20026;-91
2021/11/24 09:24:21;;;;;;;64.78;29.83;;;7.70;99.90;;;;;;5038148;28;20025;-92
2021/11/24 09:27:55;;;;;;;67.13;29.20;;;7.70;99.90;;;;;;5036880;28;20033;-91
2021/11/24 09:29:41;;;;;;;67.75;28.25;;;7.70;99.90;;;;;;5021803;28;20046;-91
2021/11/24 09:32:07;;;;;;;67.68;28.73;;;7.80;99.90;;;;;;5022231;28;20489;-91
2021/11/24 09:34:32;;;;;;;65.28;26.35;;;7.80;99.90;;;;;;5030686;28;20038;-89
2021/11/24 09:36:58;;;;;;;60.42;24.92;;;7.90;99.90;;;;;;5036762;28;20047;-91
2021/11/24 09:39:24;;;;;;;64.57;23.95;;;7.90;99.90;;;;;;5035130;28;20104;-90
2021/11/24 09:41:51;;;;;;;61.95;23.63;;;7.90;99.90;;;;;;5035897;28;20060;-90
2021/11/24 09:44:17;;;;;;;53.20;22.63;;;8.00;99.90;;;;;;5036489;28;20367;-89
2021/11/24 09:46:50;;;;;;;56.97;24.38;;;8.10;99.90;;;;;;5036871;28;20088;-90
2021/11/24 09:49:17;;;;;;;;;;;8.10;99.90;;;;;;5037472;28;20021;-90
2021/11/24 09:51:44;;;;;;;55.67;23.30;;;8.10;99.90;;;;;;5023364;28;19928;-91
2021/11/24 09:54:12;;;;;;;54.75;23.63;;;8.10;99.90;;;;;;5026873;28;20025;-91
2021/11/24 09:56:40;;;;;;;58.63;27.20;;;8.20;99.90;;;;;;5029492;28;20036;-90
2021/11/24 09:59:09;;;;;;;53.17;22.60;;;8.20;99.90;;;;;;5036389;28;20091;-90
2021/11/24 10:01:38;;;;;;;51.92;20.70;;;8.20;99.90;;;;;;5033397;28;20080;-90
2021/11/24 10:04:05;;;;;;;54.97;21.00;;;8.20;99.90;;;;;;5024204;28;20084;-90
2021/11/24 10:06:32;;;;;;;56.65;20.60;;;8.20;99.90;;;;;;5032737;28;20034;-90
2021/11/24 10:08:58;;;;;;;53.92;20.90;;;8.20;99.90;;;;;;5034077;28;20026;-90
2021/11/24 10:11:23;;;;;;;46.20;19.20;;;8.20;99.90;;;;;;5032121;28;20022;-90
2021/11/24 10:13:50;;;;;;;57.00;21.10;;;8.30;99.90;;;;;;5031789;28;20029;-88
2021/11/24 10:16:25;;;;;;;51.75;20.98;;;8.30;99.90;;;;;;5033939;28;20022;-89
2021/11/24 10:19:09;;;;;;;57.72;21.85;;;8.30;99.90;;;;;;5030965;28;20030;-90
2021/11/24 10:21:52;;;;;;;56.92;21.98;;;8.40;99.90;;;;;;5049724;28;20478;-88
2021/11/24 10:24:31;;;;;;;60.72;21.98;;;8.40;99.90;;;;;;5025464;28;20026;-88
2021/11/24 10:26:59;;;;;;;61.65;23.35;;;8.30;99.90;;;;;;5038026;28;20040;-89
2021/11/24 10:29:25;;;;;;;55.08;23.35;;;8.40;99.90;;;;;;5023274;28;20454;-89
2021/11/24 10:31:54;;;;;;;66.38;25.50;;;8.40;99.90;;;;;;5031596;28;20068;-89
2021/11/24 10:34:22;;;;;;;65.85;26.63;;;8.50;99.90;;;;;;5036865;28;20052;-88
2021/11/24 10:37:08;;;;;;;59.95;25.27;;;8.50;99.90;;;;;;5033299;28;20029;-92
2021/11/24 10:39:46;;;;;;;65.30;25.58;;;8.50;99.90;;;;;;5047151;28;20037;-88
2021/11/24 10:42:24;;;;;;;63.75;27.38;;;8.50;99.90;;;;;;5033774;28;20042;-90
2021/11/24 10:44:54;;;;;;;68.93;27.63;;;8.50;99.90;;;;;;5035062;28;20010;-89
2021/11/24 10:47:20;;;;;;;59.88;26.85;;;8.50;99.90;;;;;;5034588;28;20797;-90
2021/11/24 10:49:51;;;;;;;68.40;28.23;;;8.50;99.90;;;;;;5034699;28;20104;-88
2021/11/24 10:52:27;;;;;;;63.40;26.63;;;8.60;99.90;;;;;;5035388;28;20041;-90
2021/11/24 10:55:01;;;;;;;65.30;28.40;;;8.60;99.90;;;;;;5034940;28;20025;-89
2021/11/24 10:57:28;;;;;;;71.43;29.85;;;8.70;99.90;;;;;;5014766;28;20030;-88
2021/11/24 11:00:00;;;;;;;65.25;29.25;;;8.70;99.90;;;;;;5030866;28;20025;-89
2021/11/24 11:02:34;;;;;;;60.00;27.00;;;8.70;99.90;;;;;;5036405;28;20057;-89
2021/11/24 11:05:11;;;;;;;64.53;28.15;;;8.70;99.90;;;;;;5036366;28;20027;-90
2021/11/24 11:07:43;;;;;;;64.50;28.27;;;8.70;99.90;;;;;;5035840;28;20123;-88
2021/11/24 11:10:10;;;;;;;64.97;27.42;;;8.80;99.90;;;;;;5031116;28;20037;-90
2021/11/24 11:12:38;;;;;;;57.10;25.98;;;8.80;99.90;;;;;;5030754;28;20037;-88
2021/11/24 11:15:18;;;;;;;63.50;28.05;;;8.90;99.90;;;;;;5032179;28;20063;-88
2021/11/24 11:17:51;;;;;;;59.50;26.33;;;8.90;99.90;;;;;;5030543;28;20079;-89
2021/11/24 11:20:17;;;;;;;54.10;26.52;;;9.00;99.90;;;;;;5032401;28;20021;-88
2021/11/24 11:22:43;;;;;;;54.35;26.60;;;9.00;99.90;;;;;;5033907;28;20463;-89
2021/11/24 11:25:10;;;;;;;47.80;23.33;;;9.00;99.90;;;;;;5031887;28;20102;-90
2021/11/24 11:27:36;;;;;;;53.10;24.05;;;9.10;99.90;;;;;;5043684;28;20064;-89
2021/11/24 11:30:02;;;;;;;46.28;23.15;;;9.10;99.90;;;;;;5040503;28;20081;-90
2021/11/24 11:32:28;;;;;;;50.40;23.77;;;9.20;99.90;;;;;;5034642;28;20080;-90
2021/11/24 11:34:54;;;;;;;47.90;23.67;;;9.10;99.90;;;;;;5030844;28;20025;-89
2021/11/24 11:37:20;;;;;;;40.25;20.60;;;9.10;99.90;;;;;;5031011;28;20087;-89
2021/11/24 11:39:46;;;;;;;45.25;22.73;;;9.20;99.90;;;;;;5026193;28;20060;-89
2021/11/24 11:42:15;;;;;;;38.40;20.52;;;9.10;99.90;;;;;;5032687;28;20092;-89
2021/11/24 11:44:42;;;;;;;40.70;18.88;;;9.10;99.90;;;;;;5032462;28;20041;-90
2021/11/24 11:47:08;;;;;;;40.25;20.00;;;9.10;99.90;;;;;;5037792;28;20050;-91
2021/11/24 11:49:38;;;;;;;39.35;20.58;;;9.00;99.90;;;;;;5036692;28;20021;-89
2021/11/24 11:52:09;;;;;;;38.38;19.48;;;9.00;99.90;;;;;;5036002;28;20033;-90
2021/11/24 11:54:35;;;;;;;42.07;19.90;;;9.00;99.90;;;;;;5029943;28;20029;-90
2021/11/24 11:57:04;;;;;;;37.03;19.45;;;9.10;99.90;;;;;;5023032;28;20022;-89
2021/11/24 11:59:35;;;;;;;39.13;19.40;;;9.10;99.90;;;;;;5019279;28;20036;-89
2021/11/24 12:02:04;;;;;;;39.25;18.30;;;9.10;99.90;;;;;;5038772;28;20028;-90
2021/11/24 12:04:45;;;;;;;34.42;18.35;;;9.10;99.90;;;;;;5038514;28;20036;-90
2021/11/24 12:07:16;;;;;;;33.75;17.27;;;9.20;99.90;;;;;;5036455;28;20025;-89
2021/11/24 12:09:46;;;;;;;36.45;17.55;;;9.20;99.90;;;;;;5055239;28;20470;-89
2021/11/24 12:12:19;;;;;;;34.25;18.27;;;9.20;99.90;;;;;;5034762;28;20489;-89
2021/11/24 12:14:52;;;;;;;33.22;17.40;;;9.30;99.90;;;;;;5037663;28;20029;-91
2021/11/24 12:17:27;;;;;;;35.08;17.20;;;9.30;99.90;;;;;;5037559;28;20115;-88
2021/11/24 12:20:16;;;;;;;31.33;16.63;;;9.30;99.90;;;;;;5037414;28;20044;-88
2021/11/24 12:25:23;;;;;;;25.38;13.73;;;9.30;99.90;;;;;;5060131;28;20431;-89
2021/11/24 12:27:52;;;;;;;25.15;14.13;;;9.30;99.90;;;;;;5033623;28;20025;-88
2021/11/24 12:30:36;;;;;;;26.13;14.75;;;9.20;99.90;;;;;;5054121;28;20025;-88
2021/11/24 12:33:05;;;;;;;25.73;13.85;;;9.30;99.90;;;;;;5055618;28;20124;-88
2021/11/24 12:35:32;;;;;;;24.35;13.55;;;9.30;99.90;;;;;;5038035;28;20172;-88